sensor_id;sensor_type;location;lat;lon;timestamp;pressure;altitude;pressure_sealevel;temperature;humidity
62418;BME280;48456;54.242;10.280;2023-08-24T00:00:22;101652.16;;;15.20;100.00
62418;BME280;48456;54.242;10.280;2023-08-24T00:02:49;101651.34;;;15.14;100.00
62418;BME280;48456;54.242;10.280;2023-08-24T00:05:15;101655.81;;;15.10;100.00
62418;BME280;48456;54.242;10.280;2023-08-24T00:07:42;101655.84;;;15.07;100.00
62418;BME280;48456;54.242;10.280;2023-08-24T00:10:09;101648.75;;;15.04;100.00
62418;BME280;48456;54.242;10.280;2023-08-24T00:12:35;101650.56;;;15.04;100.00
62418;BME280;48456;54.242;10.280;2023-08-24T00:15:02;101654.09;;;15.04;100.00
62418;BME280;48456;54.242;10.280;2023-08-24T00:17:29;101649.69;;;15.00;100.00
62418;BME280;48456;54.242;10.280;2023-08-24T00:19:55;101641.72;;;14.97;100.00
62418;BME280;48456;54.242;10.280;2023-08-24T00:22:22;101643.53;;;14.92;100.00
62418;BME280;48456;54.242;10.280;2023-08-24T00:24:49;101648.03;;;14.88;100.00
62418;BME280;48456;54.242;10.280;2023-08-24T00:27:15;101640.13;;;14.80;100.00
62418;BME280;48456;54.242;10.280;2023-08-24T00:29:42;101649.88;;;14.74;100.00
62418;BME280;48456;54.242;10.280;2023-08-24T00:32:08;101647.28;;;14.67;100.00
62418;BME280;48456;54.242;10.280;2023-08-24T00:34:34;101640.22;;;14.59;100.00
62418;BME280;48456;54.242;10.280;2023-08-24T00:37:01;101638.47;;;14.54;100.00
62418;BME280;48456;54.242;10.280;2023-08-24T00:39:27;101642.06;;;14.52;100.00
62418;BME280;48456;54.242;10.280;2023-08-24T00:41:54;101641.22;;;14.48;100.00
62418;BME280;48456;54.242;10.280;2023-08-24T00:44:20;101639.47;;;14.44;100.00
62418;BME280;48456;54.242;10.280;2023-08-24T00:46:47;101634.16;;;14.39;100.00
62418;BME280;48456;54.242;10.280;2023-08-24T00:49:13;101635.97;;;14.37;100.00
62418;BME280;48456;54.242;10.280;2023-08-24T00:51:40;101639.53;;;14.36;100.00
62418;BME280;48456;54.242;10.280;2023-08-24T00:54:06;101647.53;;;14.33;100.00
62418;BME280;48456;54.242;10.280;2023-08-24T00:56:33;101644.88;;;14.27;100.00
62418;BME280;48456;54.242;10.280;2023-08-24T00:59:00;101649.34;;;14.23;100.00
62418;BME280;48456;54.242;10.280;2023-08-24T01:01:26;101660.03;;;14.19;100.00
62418;BME280;48456;54.242;10.280;2023-08-24T01:03:53;101660.91;;;14.16;100.00
62418;BME280;48456;54.242;10.280;2023-08-24T01:06:19;101657.38;;;14.14;100.00
62418;BME280;48456;54.242;10.280;2023-08-24T01:08:45;101662.72;;;14.12;100.00
62418;BME280;48456;54.242;10.280;2023-08-24T01:11:16;101663.63;;;14.13;100.00
62418;BME280;48456;54.242;10.280;2023-08-24T01:13:46;101655.63;;;14.10;100.00
62418;BME280;48456;54.242;10.280;2023-08-24T01:16:17;101654.75;;;14.08;100.00
62418;BME280;48456;54.242;10.280;2023-08-24T01:18:44;101653.00;;;14.03;100.00
62418;BME280;48456;54.242;10.280;2023-08-24T01:21:11;101648.63;;;13.98;100.00
62418;BME280;48456;54.242;10.280;2023-08-24T01:23:43;101647.72;;;13.94;100.00
62418;BME280;48456;54.242;10.280;2023-08-24T01:26:15;101650.44;;;13.86;100.00
62418;BME280;48456;54.242;10.280;2023-08-24T01:28:43;101652.19;;;13.84;100.00
62418;BME280;48456;54.242;10.280;2023-08-24T01:31:10;101651.34;;;13.82;100.00
62418;BME280;48456;54.242;10.280;2023-08-24T01:33:36;101651.34;;;13.82;100.00
62418;BME280;48456;54.242;10.280;2023-08-24T01:36:03;101661.06;;;13.82;100.00
62418;BME280;48456;54.242;10.280;2023-08-24T01:38:29;101659.31;;;13.82;100.00
62418;BME280;48456;54.242;10.280;2023-08-24T01:43:28;101658.41;;;13.82;100.00
62418;BME280;48456;54.242;10.280;2023-08-24T01:46:09;101658.41;;;13.86;100.00
62418;BME280;48456;54.242;10.280;2023-08-24T01:48:37;101657.50;;;13.87;100.00
62418;BME280;48456;54.242;10.280;2023-08-24T01:51:05;101661.94;;;13.88;100.00
62418;BME280;48456;54.242;10.280;2023-08-24T01:53:32;101658.41;;;13.86;100.00
62418;BME280;48456;54.242;10.280;2023-08-24T01:55:59;101646.00;;;13.84;100.00
62418;BME280;48456;54.242;10.280;2023-08-24T01:58:25;101660.19;;;13.84;100.00
62418;BME280;48456;54.242;10.280;2023-08-24T02:00:52;101654.91;;;13.80;100.00
62418;BME280;48456;54.242;10.280;2023-08-24T02:03:18;101652.25;;;13.75;100.00
62418;BME280;48456;54.242;10.280;2023-08-24T02:05:45;101646.97;;;13.69;100.00
62418;BME280;48456;54.242;10.280;2023-08-24T02:08:11;101660.25;;;13.69;100.00
62418;BME280;48456;54.242;10.280;2023-08-24T02:10:37;101666.47;;;13.66;100.00
62418;BME280;48456;54.242;10.280;2023-08-24T02:13:04;101654.94;;;13.61;100.00
62418;BME280;48456;54.242;10.280;2023-08-24T02:15:30;101658.53;;;13.54;100.00
62418;BME280;48456;54.242;10.280;2023-08-24T02:17:56;101651.44;;;13.49;100.00
62418;BME280;48456;54.242;10.280;2023-08-24T02:20:23;101649.66;;;13.47;100.00
62418;BME280;48456;54.242;10.280;2023-08-24T02:22:49;101650.53;;;13.46;100.00
62418;BME280;48456;54.242;10.280;2023-08-24T02:25:16;101648.75;;;13.45;100.00
62418;BME280;48456;54.242;10.280;2023-08-24T02:27:42;101650.56;;;13.43;100.00
62418;BME280;48456;54.242;10.280;2023-08-24T02:30:08;101650.56;;;13.44;100.00
62418;BME280;48456;54.242;10.280;2023-08-24T02:32:35;101648.75;;;13.42;100.00
62418;BME280;48456;54.242;10.280;2023-08-24T02:35:01;101649.66;;;13.41;100.00
62418;BME280;48456;54.242;10.280;2023-08-24T02:37:28;101652.31;;;13.37;100.00
62418;BME280;48456;54.242;10.280;2023-08-24T02:39:54;101645.25;;;13.38;100.00
62418;BME280;48456;54.242;10.280;2023-08-24T02:42:20;101650.56;;;13.36;100.00
62418;BME280;48456;54.242;10.280;2023-08-24T02:44:47;101640.81;;;13.35;100.00
62418;BME280;48456;54.242;10.280;2023-08-24T02:47:13;101637.25;;;13.33;100.00
62418;BME280;48456;54.242;10.280;2023-08-24T02:49:41;101629.31;;;13.29;100.00
62418;BME280;48456;54.242;10.280;2023-08-24T02:52:07;101635.53;;;13.29;100.00
62418;BME280;48456;54.242;10.280;2023-08-24T02:54:33;101633.75;;;13.31;100.00
62418;BME280;48456;54.242;10.280;2023-08-24T02:57:00;101632.84;;;13.32;100.00
62418;BME280;48456;54.242;10.280;2023-08-24T02:59:26;101633.75;;;13.34;100.00
62418;BME280;48456;54.242;10.280;2023-08-24T03:01:52;101628.44;;;13.36;100.00
62418;BME280;48456;54.242;10.280;2023-08-24T03:04:19;101629.28;;;13.39;100.00
62418;BME280;48456;54.242;10.280;2023-08-24T03:06:46;101626.63;;;13.38;100.00
62418;BME280;48456;54.242;10.280;2023-08-24T03:09:12;101621.31;;;13.41;100.00
62418;BME280;48456;54.242;10.280;2023-08-24T03:11:38;101611.59;;;13.40;100.00
62418;BME280;48456;54.242;10.280;2023-08-24T03:14:05;101617.81;;;13.36;100.00
62418;BME280;48456;54.242;10.280;2023-08-24T03:16:31;101619.56;;;13.32;100.00
62418;BME280;48456;54.242;10.280;2023-08-24T03:18:58;101616.03;;;13.29;100.00
62418;BME280;48456;54.242;10.280;2023-08-24T03:21:24;101631.97;;;13.25;100.00
62418;BME280;48456;54.242;10.280;2023-08-24T03:23:51;101623.16;;;13.22;100.00
62418;BME280;48456;54.242;10.280;2023-08-24T03:26:17;101619.59;;;13.21;100.00
62418;BME280;48456;54.242;10.280;2023-08-24T03:28:46;101624.91;;;13.20;100.00
62418;BME280;48456;54.242;10.280;2023-08-24T03:31:12;101619.63;;;13.12;100.00
62418;BME280;48456;54.242;10.280;2023-08-24T03:33:39;101623.16;;;13.05;100.00
62418;BME280;48456;54.242;10.280;2023-08-24T03:36:06;101625.84;;;13.00;100.00
62418;BME280;48456;54.242;10.280;2023-08-24T03:38:32;101616.97;;;12.95;100.00
62418;BME280;48456;54.242;10.280;2023-08-24T03:40:59;101622.31;;;12.89;100.00
62418;BME280;48456;54.242;10.280;2023-08-24T03:43:26;101623.19;;;12.83;100.00
62418;BME280;48456;54.242;10.280;2023-08-24T03:45:52;101620.56;;;12.78;100.00
62418;BME280;48456;54.242;10.280;2023-08-24T03:48:18;101626.72;;;12.76;100.00
62418;BME280;48456;54.242;10.280;2023-08-24T03:50:45;101621.44;;;12.72;100.00
62418;BME280;48456;54.242;10.280;2023-08-24T03:53:11;101633.81;;;12.70;100.00
62418;BME280;48456;54.242;10.280;2023-08-24T03:55:39;101627.63;;;12.67;100.00
62418;BME280;48456;54.242;10.280;2023-08-24T03:58:05;101632.06;;;12.63;100.00
62418;BME280;48456;54.242;10.280;2023-08-24T04:00:31;101628.50;;;12.58;100.00
62418;BME280;48456;54.242;10.280;2023-08-24T04:02:58;101624.97;;;12.54;100.00
62418;BME280;48456;54.242;10.280;2023-08-24T04:05:24;101613.44;;;12.52;100.00
62418;BME280;48456;54.242;10.280;2023-08-24T04:07:51;101623.16;;;12.45;100.00
62418;BME280;48456;54.242;10.280;2023-08-24T04:10:18;101617.84;;;12.36;100.00
62418;BME280;48456;54.242;10.280;2023-08-24T04:12:45;101614.31;;;12.29;100.00
62418;BME280;48456;54.242;10.280;2023-08-24T04:15:12;101614.31;;;12.29;100.00
62418;BME280;48456;54.242;10.280;2023-08-24T04:17:38;101608.09;;;12.29;100.00
62418;BME280;48456;54.242;10.280;2023-08-24T04:20:11;101604.56;;;12.24;100.00
62418;BME280;48456;54.242;10.280;2023-08-24T04:22:37;101599.28;;;12.19;100.00
62418;BME280;48456;54.242;10.280;2023-08-24T04:25:04;101608.09;;;12.21;100.00
62418;BME280;48456;54.242;10.280;2023-08-24T04:27:30;101595.72;;;12.15;100.00
62418;BME280;48456;54.242;10.280;2023-08-24T04:29:57;101590.41;;;12.14;100.00
62418;BME280;48456;54.242;10.280;2023-08-24T04:32:23;101599.25;;;12.14;100.00
62418;BME280;48456;54.242;10.280;2023-08-24T04:34:50;101596.63;;;12.16;100.00
62418;BME280;48456;54.242;10.280;2023-08-24T04:37:16;101597.50;;;12.21;100.00
62418;BME280;48456;54.242;10.280;2023-08-24T04:39:43;101604.59;;;12.27;100.00
62418;BME280;48456;54.242;10.280;2023-08-24T04:42:09;101601.06;;;12.32;100.00
62418;BME280;48456;54.242;10.280;2023-08-24T04:44:35;101602.84;;;12.37;100.00
62418;BME280;48456;54.242;10.280;2023-08-24T04:47:02;101609.03;;;12.42;100.00
62418;BME280;48456;54.242;10.280;2023-08-24T04:49:30;101601.06;;;12.51;100.00
62418;BME280;48456;54.242;10.280;2023-08-24T04:51:56;101600.19;;;12.57;100.00
62418;BME280;48456;54.242;10.280;2023-08-24T04:54:22;101614.34;;;12.60;100.00
62418;BME280;48456;54.242;10.280;2023-08-24T04:56:49;101614.34;;;12.62;100.00
62418;BME280;48456;54.242;10.280;2023-08-24T04:59:15;101609.03;;;12.65;100.00
62418;BME280;48456;54.242;10.280;2023-08-24T05:01:42;101613.44;;;12.65;100.00
62418;BME280;48456;54.242;10.280;2023-08-24T05:04:08;101614.34;;;12.62;100.00
62418;BME280;48456;54.242;10.280;2023-08-24T05:06:34;101614.34;;;12.57;100.00
62418;BME280;48456;54.242;10.280;2023-08-24T05:09:01;101618.78;;;12.58;100.00
62418;BME280;48456;54.242;10.280;2023-08-24T05:11:28;101612.56;;;12.61;100.00
62418;BME280;48456;54.242;10.280;2023-08-24T05:13:57;101618.75;;;12.66;100.00
62418;BME280;48456;54.242;10.280;2023-08-24T05:16:23;101617.88;;;12.70;100.00
62418;BME280;48456;54.242;10.280;2023-08-24T05:18:50;101622.31;;;12.76;100.00
62418;BME280;48456;54.242;10.280;2023-08-24T05:21:17;101620.53;;;12.83;100.00
62418;BME280;48456;54.242;10.280;2023-08-24T05:23:43;101623.19;;;12.88;100.00
62418;BME280;48456;54.242;10.280;2023-08-24T05:26:09;101622.31;;;12.92;100.00
62418;BME280;48456;54.242;10.280;2023-08-24T05:28:36;101632.00;;;12.99;100.00
62418;BME280;48456;54.242;10.280;2023-08-24T05:31:02;101636.44;;;13.08;100.00
62418;BME280;48456;54.242;10.280;2023-08-24T05:33:29;101634.66;;;13.21;100.00
62418;BME280;48456;54.242;10.280;2023-08-24T05:35:57;101634.59;;;13.38;100.00
62418;BME280;48456;54.242;10.280;2023-08-24T05:38:26;101629.28;;;13.55;100.00
62418;BME280;48456;54.242;10.280;2023-08-24T05:40:53;101633.66;;;13.70;100.00
62418;BME280;48456;54.242;10.280;2023-08-24T05:43:19;101637.13;;;13.85;100.00
62418;BME280;48456;54.242;10.280;2023-08-24T05:45:46;101627.34;;;13.93;100.00
62418;BME280;48456;54.242;10.280;2023-08-24T05:48:14;101633.53;;;13.98;100.00
62418;BME280;48456;54.242;10.280;2023-08-24T05:50:44;101630.84;;;14.03;100.00
62418;BME280;48456;54.242;10.280;2023-08-24T05:53:10;101628.16;;;14.08;100.00
62418;BME280;48456;54.242;10.280;2023-08-24T05:55:37;101641.41;;;14.15;100.00
62418;BME280;48456;54.242;10.280;2023-08-24T05:58:04;101635.16;;;14.23;100.00
62418;BME280;48456;54.242;10.280;2023-08-24T06:00:31;101628.91;;;14.32;100.00
62418;BME280;48456;54.242;10.280;2023-08-24T06:02:57;101633.25;;;14.43;100.00
62418;BME280;48456;54.242;10.280;2023-08-24T06:05:24;101638.41;;;14.65;100.00
62418;BME280;48456;54.242;10.280;2023-08-24T06:07:50;101633.78;;;14.91;100.00
62418;BME280;48456;54.242;10.280;2023-08-24T06:10:17;101630.91;;;15.13;100.00
62418;BME280;48456;54.242;10.280;2023-08-24T06:12:43;101628.94;;;15.32;100.00
62418;BME280;48456;54.242;10.280;2023-08-24T06:15:10;101632.34;;;15.46;100.00
62418;BME280;48456;54.242;10.280;2023-08-24T06:17:39;101628.63;;;15.60;100.00
62418;BME280;48456;54.242;10.280;2023-08-24T06:20:05;101624.94;;;15.72;100.00
62418;BME280;48456;54.242;10.280;2023-08-24T06:22:32;101625.59;;;15.88;100.00
62418;BME280;48456;54.242;10.280;2023-08-24T06:24:58;101625.50;;;15.99;100.00
62418;BME280;48456;54.242;10.280;2023-08-24T06:27:27;101624.47;;;16.09;100.00
62418;BME280;48456;54.242;10.280;2023-08-24T06:29:54;101611.94;;;16.15;100.00
62418;BME280;48456;54.242;10.280;2023-08-24T06:32:20;101607.38;;;16.23;100.00
62418;BME280;48456;54.242;10.280;2023-08-24T06:34:47;101609.09;;;16.27;100.00
62418;BME280;48456;54.242;10.280;2023-08-24T06:37:13;101600.06;;;16.36;100.00
62418;BME280;48456;54.242;10.280;2023-08-24T06:39:39;101599.94;;;16.42;100.00
62418;BME280;48456;54.242;10.280;2023-08-24T06:42:06;101602.47;;;16.52;100.00
62418;BME280;48456;54.242;10.280;2023-08-24T06:44:32;101595.19;;;16.61;100.00
62418;BME280;48456;54.242;10.280;2023-08-24T06:46:58;101586.03;;;16.75;100.00
62418;BME280;48456;54.242;10.280;2023-08-24T06:49:26;101591.16;;;16.89;100.00
62418;BME280;48456;54.242;10.280;2023-08-24T06:51:52;101592.72;;;16.99;100.00
62418;BME280;48456;54.242;10.280;2023-08-24T06:54:18;101588.28;;;17.00;100.00
62418;BME280;48456;54.242;10.280;2023-08-24T06:56:45;101595.16;;;17.15;100.00
62418;BME280;48456;54.242;10.280;2023-08-24T06:59:11;101591.19;;;17.36;100.00
62418;BME280;48456;54.242;10.280;2023-08-24T07:01:39;101591.78;;;17.51;100.00
62418;BME280;48456;54.242;10.280;2023-08-24T07:04:07;101599.00;;;17.47;100.00
62418;BME280;48456;54.242;10.280;2023-08-24T07:06:33;101586.38;;;17.54;100.00
62418;BME280;48456;54.242;10.280;2023-08-24T07:09:00;101590.50;;;17.69;100.00
62418;BME280;48456;54.242;10.280;2023-08-24T07:11:29;101585.91;;;17.76;100.00
62418;BME280;48456;54.242;10.280;2023-08-24T07:13:55;101591.94;;;17.86;100.00
62418;BME280;48456;54.242;10.280;2023-08-24T07:16:22;101584.53;;;17.97;100.00
62418;BME280;48456;54.242;10.280;2023-08-24T07:18:48;101592.28;;;18.11;100.00
62418;BME280;48456;54.242;10.280;2023-08-24T07:21:14;101584.06;;;18.19;100.00
62418;BME280;48456;54.242;10.280;2023-08-24T07:23:42;101567.88;;;18.24;100.00
62418;BME280;48456;54.242;10.280;2023-08-24T07:26:09;101564.97;;;18.33;100.00
62418;BME280;48456;54.242;10.280;2023-08-24T07:28:35;101569.66;;;18.23;100.00
62418;BME280;48456;54.242;10.280;2023-08-24T07:31:11;101567.69;;;18.31;100.00
62418;BME280;48456;54.242;10.280;2023-08-24T07:33:37;101564.50;;;18.53;100.00
62418;BME280;48456;54.242;10.280;2023-08-24T07:36:05;101565.25;;;18.59;100.00
62418;BME280;48456;54.242;10.280;2023-08-24T07:38:31;101564.00;;;18.72;100.00
62418;BME280;48456;54.242;10.280;2023-08-24T07:40:58;101568.41;;;18.75;100.00
62418;BME280;48456;54.242;10.280;2023-08-24T07:43:24;101563.53;;;18.89;100.00
62418;BME280;48456;54.242;10.280;2023-08-24T07:45:51;101560.66;;;18.97;100.00
62418;BME280;48456;54.242;10.280;2023-08-24T07:48:18;101557.94;;;18.99;100.00
62418;BME280;48456;54.242;10.280;2023-08-24T07:50:45;101560.22;;;19.14;100.00
62418;BME280;48456;54.242;10.280;2023-08-24T07:53:11;101567.47;;;19.11;100.00
62418;BME280;48456;54.242;10.280;2023-08-24T07:55:38;101559.63;;;19.03;100.00
62418;BME280;48456;54.242;10.280;2023-08-24T07:58:04;101564.56;;;19.18;100.00
62418;BME280;48456;54.242;10.280;2023-08-24T08:00:30;101555.09;;;19.37;100.00
62418;BME280;48456;54.242;10.280;2023-08-24T08:02:57;101559.19;;;19.50;100.00
62418;BME280;48456;54.242;10.280;2023-08-24T08:05:23;101556.50;;;19.50;100.00
62418;BME280;48456;54.242;10.280;2023-08-24T08:07:50;101564.19;;;19.63;100.00
62418;BME280;48456;54.242;10.280;2023-08-24T08:10:17;101567.34;;;19.77;100.00
62418;BME280;48456;54.242;10.280;2023-08-24T08:12:43;101549.28;;;19.82;100.00
62418;BME280;48456;54.242;10.280;2023-08-24T08:15:10;101556.59;;;19.77;100.00
62418;BME280;48456;54.242;10.280;2023-08-24T08:17:36;101546.94;;;19.71;100.00
62418;BME280;48456;54.242;10.280;2023-08-24T08:20:03;101543.06;;;19.80;100.00
62418;BME280;48456;54.242;10.280;2023-08-24T08:22:29;101549.03;;;19.90;100.00
62418;BME280;48456;54.242;10.280;2023-08-24T08:24:56;101544.84;;;19.81;100.00
62418;BME280;48456;54.242;10.280;2023-08-24T08:27:22;101549.19;;;19.85;100.00
62418;BME280;48456;54.242;10.280;2023-08-24T08:29:49;101550.84;;;19.90;100.00
62418;BME280;48456;54.242;10.280;2023-08-24T08:32:16;101550.47;;;20.02;100.00
62418;BME280;48456;54.242;10.280;2023-08-24T08:34:42;101539.19;;;20.19;100.00
62418;BME280;48456;54.242;10.280;2023-08-24T08:37:09;101544.09;;;20.33;100.00
62418;BME280;48456;54.242;10.280;2023-08-24T08:39:35;101554.94;;;20.30;100.00
62418;BME280;48456;54.242;10.280;2023-08-24T08:42:02;101556.97;;;20.23;100.00
62418;BME280;48456;54.242;10.280;2023-08-24T08:44:30;101550.84;;;20.45;100.00
62418;BME280;48456;54.242;10.280;2023-08-24T08:46:57;101549.78;;;20.51;100.00
62418;BME280;48456;54.242;10.280;2023-08-24T08:49:23;101554.56;;;20.41;100.00
62418;BME280;48456;54.242;10.280;2023-08-24T08:51:50;101553.44;;;20.48;100.00
62418;BME280;48456;54.242;10.280;2023-08-24T08:54:17;101546.38;;;20.46;100.00
62418;BME280;48456;54.242;10.280;2023-08-24T08:56:44;101548.53;;;20.34;100.00
62418;BME280;48456;54.242;10.280;2023-08-24T08:59:10;101546.53;;;20.41;100.00
62418;BME280;48456;54.242;10.280;2023-08-24T09:01:40;101549.41;;;20.62;100.00
62418;BME280;48456;54.242;10.280;2023-08-24T09:04:07;101540.75;;;20.79;100.00
62418;BME280;48456;54.242;10.280;2023-08-24T09:06:34;101536.47;;;20.73;100.00
62418;BME280;48456;54.242;10.280;2023-08-24T09:09:01;101540.16;;;20.71;100.00
62418;BME280;48456;54.242;10.280;2023-08-24T09:11:27;101537.94;;;20.82;100.00
62418;BME280;48456;54.242;10.280;2023-08-24T09:13:54;101539.56;;;20.88;100.00
62418;BME280;48456;54.242;10.280;2023-08-24T09:16:20;101539.22;;;20.97;100.00
62418;BME280;48456;54.242;10.280;2023-08-24T09:18:47;101540.06;;;20.99;100.00
62418;BME280;48456;54.242;10.280;2023-08-24T09:21:14;101531.94;;;21.01;100.00
62418;BME280;48456;54.242;10.280;2023-08-24T09:23:45;101528.16;;;21.07;100.00
62418;BME280;48456;54.242;10.280;2023-08-24T09:26:12;101534.03;;;21.16;100.00
62418;BME280;48456;54.242;10.280;2023-08-24T09:28:41;101535.53;;;21.00;100.00
62418;BME280;48456;54.242;10.280;2023-08-24T09:31:08;101526.41;;;21.04;100.00
62418;BME280;48456;54.242;10.280;2023-08-24T09:33:35;101525.09;;;21.16;100.00
62418;BME280;48456;54.242;10.280;2023-08-24T09:36:02;101528.94;;;21.09;100.00
62418;BME280;48456;54.242;10.280;2023-08-24T09:38:32;101530.50;;;21.16;100.00
62418;BME280;48456;54.242;10.280;2023-08-24T09:40:58;101526.75;;;21.20;100.00
62418;BME280;48456;54.242;10.280;2023-08-24T09:43:25;101519.44;;;21.24;100.00
62418;BME280;48456;54.242;10.280;2023-08-24T09:45:55;101528.41;;;21.47;100.00
62418;BME280;48456;54.242;10.280;2023-08-24T09:48:22;101519.88;;;21.59;100.00
62418;BME280;48456;54.242;10.280;2023-08-24T09:50:53;101523.88;;;21.49;100.00
62418;BME280;48456;54.242;10.280;2023-08-24T09:53:23;101521.31;;;21.68;100.00
62418;BME280;48456;54.242;10.280;2023-08-24T09:55:59;101517.16;;;21.83;100.00
62418;BME280;48456;54.242;10.280;2023-08-24T09:58:26;101514.59;;;21.80;100.00
62418;BME280;48456;54.242;10.280;2023-08-24T10:00:54;101513.47;;;21.86;100.00
62418;BME280;48456;54.242;10.280;2023-08-24T10:03:29;101513.25;;;21.92;100.00
62418;BME280;48456;54.242;10.280;2023-08-24T10:05:56;101510.00;;;22.04;100.00
62418;BME280;48456;54.242;10.280;2023-08-24T10:08:37;101526.44;;;21.98;100.00
62418;BME280;48456;54.242;10.280;2023-08-24T10:11:05;101521.22;;;22.16;100.00
62418;BME280;48456;54.242;10.280;2023-08-24T10:16:04;101524.31;;;22.50;100.00
62418;BME280;48456;54.242;10.280;2023-08-24T10:18:31;101516.13;;;22.51;100.00
62418;BME280;48456;54.242;10.280;2023-08-24T10:20:57;101519.72;;;22.52;100.00
62418;BME280;48456;54.242;10.280;2023-08-24T10:23:24;101515.06;;;22.35;100.00
62418;BME280;48456;54.242;10.280;2023-08-24T10:25:51;101518.19;;;22.24;100.00
62418;BME280;48456;54.242;10.280;2023-08-24T10:28:18;101518.50;;;22.38;100.00
62418;BME280;48456;54.242;10.280;2023-08-24T10:30:46;101506.69;;;22.63;100.00
62418;BME280;48456;54.242;10.280;2023-08-24T10:33:13;101516.94;;;22.76;100.00
62418;BME280;48456;54.242;10.280;2023-08-24T10:35:40;101504.66;;;22.89;100.00
62418;BME280;48456;54.242;10.280;2023-08-24T10:38:06;101506.13;;;22.96;100.00
62418;BME280;48456;54.242;10.280;2023-08-24T10:40:37;101500.44;;;23.03;100.00
62418;BME280;48456;54.242;10.280;2023-08-24T10:43:10;101489.06;;;23.15;100.00
62418;BME280;48456;54.242;10.280;2023-08-24T10:48:23;101497.47;;;23.28;100.00
62418;BME280;48456;54.242;10.280;2023-08-24T10:53:38;101475.72;;;23.31;100.00
62418;BME280;48456;54.242;10.280;2023-08-24T10:56:11;101459.03;;;23.42;100.00
62418;BME280;48456;54.242;10.280;2023-08-24T10:58:38;101460.53;;;23.67;100.00
62418;BME280;48456;54.242;10.280;2023-08-24T11:01:04;101466.78;;;23.87;100.00
62418;BME280;48456;54.242;10.280;2023-08-24T11:03:31;101470.72;;;24.34;100.00
62418;BME280;48456;54.242;10.280;2023-08-24T11:06:01;101458.28;;;25.65;100.00
62418;BME280;48456;54.242;10.280;2023-08-24T11:11:18;101460.47;;;27.10;92.13
62418;BME280;48456;54.242;10.280;2023-08-24T11:16:41;101464.88;;;28.62;82.46
62418;BME280;48456;54.242;10.280;2023-08-24T11:19:07;101468.03;;;29.08;73.40
62418;BME280;48456;54.242;10.280;2023-08-24T11:21:34;101460.38;;;29.26;65.39
62418;BME280;48456;54.242;10.280;2023-08-24T11:24:02;101457.94;;;29.72;65.56
62418;BME280;48456;54.242;10.280;2023-08-24T11:26:29;101448.31;;;29.55;61.70
62418;BME280;48456;54.242;10.280;2023-08-24T11:28:59;101437.72;;;29.99;58.63
62418;BME280;48456;54.242;10.280;2023-08-24T11:31:25;101423.53;;;30.18;60.18
62418;BME280;48456;54.242;10.280;2023-08-24T11:33:55;101424.19;;;29.62;59.03
62418;BME280;48456;54.242;10.280;2023-08-24T11:36:22;101421.66;;;28.71;62.64
62418;BME280;48456;54.242;10.280;2023-08-24T11:38:52;101411.25;;;28.38;70.61
62418;BME280;48456;54.242;10.280;2023-08-24T11:41:19;101404.00;;;28.11;66.71
62418;BME280;48456;54.242;10.280;2023-08-24T11:43:48;101397.47;;;28.01;67.99
62418;BME280;48456;54.242;10.280;2023-08-24T11:46:17;101391.16;;;27.87;64.05
62418;BME280;48456;54.242;10.280;2023-08-24T11:48:44;101387.03;;;28.08;69.20
62418;BME280;48456;54.242;10.280;2023-08-24T11:51:12;101379.66;;;28.10;66.96
62418;BME280;48456;54.242;10.280;2023-08-24T11:53:42;101366.06;;;28.10;66.65
62418;BME280;48456;54.242;10.280;2023-08-24T11:56:09;101370.25;;;27.75;67.89
62418;BME280;48456;54.242;10.280;2023-08-24T11:58:42;101369.09;;;27.09;80.44
62418;BME280;48456;54.242;10.280;2023-08-24T12:01:09;101376.28;;;27.10;76.53
62418;BME280;48456;54.242;10.280;2023-08-24T12:03:40;101359.59;;;27.17;77.74
62418;BME280;48456;54.242;10.280;2023-08-24T12:06:13;101352.16;;;26.91;77.00
62418;BME280;48456;54.242;10.280;2023-08-24T12:08:41;101345.59;;;26.95;79.45
62418;BME280;48456;54.242;10.280;2023-08-24T12:11:17;101348.78;;;26.73;82.67
62418;BME280;48456;54.242;10.280;2023-08-24T12:13:45;101349.19;;;26.52;75.61
62418;BME280;48456;54.242;10.280;2023-08-24T12:16:12;101341.63;;;26.72;80.66
62418;BME280;48456;54.242;10.280;2023-08-24T12:18:52;101330.28;;;26.80;90.93
62418;BME280;48456;54.242;10.280;2023-08-24T12:21:20;101314.59;;;26.70;96.93
62418;BME280;48456;54.242;10.280;2023-08-24T12:26:22;101319.91;;;27.69;89.06
62418;BME280;48456;54.242;10.280;2023-08-24T12:28:49;101309.44;;;28.54;71.56
62418;BME280;48456;54.242;10.280;2023-08-24T12:31:16;101319.84;;;29.35;59.25
62418;BME280;48456;54.242;10.280;2023-08-24T12:33:43;101327.63;;;29.89;57.41
62418;BME280;48456;54.242;10.280;2023-08-24T12:36:10;101326.00;;;29.50;50.47
62418;BME280;48456;54.242;10.280;2023-08-24T12:38:36;101320.88;;;30.40;52.33
62418;BME280;48456;54.242;10.280;2023-08-24T12:41:03;101320.16;;;31.17;51.71
62418;BME280;48456;54.242;10.280;2023-08-24T12:43:29;101314.81;;;31.48;48.79
62418;BME280;48456;54.242;10.280;2023-08-24T12:45:56;101315.09;;;31.66;45.62
62418;BME280;48456;54.242;10.280;2023-08-24T12:48:22;101322.47;;;31.33;46.47